createdAt,value
2023-05-04T00:00:07.799Z,5.60
2023-05-04T00:02:54.120Z,5.78
2023-05-04T00:05:39.951Z,5.25
2023-05-04T00:08:26.008Z,6.20
2023-05-04T00:11:12.126Z,5.10
2023-05-04T00:13:58.081Z,4.80
2023-05-04T00:16:44.255Z,5.95
2023-05-04T00:19:30.075Z,4.22
2023-05-04T00:22:16.345Z,6.30
2023-05-04T00:25:02.263Z,15.00
2023-05-04T00:27:48.033Z,6.82
2023-05-04T00:30:33.854Z,4.22
2023-05-04T00:33:19.848Z,4.45
2023-05-04T00:36:06.088Z,4.40
2023-05-04T00:38:54.402Z,5.20
2023-05-04T00:41:40.871Z,4.45
2023-05-04T00:44:26.616Z,4.93
2023-05-04T00:47:13.500Z,6.95
2023-05-04T00:49:59.713Z,15.30
2023-05-04T00:52:47.072Z,5.07
2023-05-04T00:55:32.793Z,3.17
2023-05-04T00:58:19.124Z,7.90
2023-05-04T01:01:05.290Z,5.30
2023-05-04T01:03:52.175Z,3.83
2023-05-04T01:06:40.947Z,2.95
2023-05-04T01:09:26.682Z,3.78
2023-05-04T01:12:22.672Z,4.70
2023-05-04T01:15:10.081Z,5.07
2023-05-04T01:17:55.964Z,7.75
2023-05-04T01:20:42.736Z,7.35
2023-05-04T01:23:28.709Z,3.30
2023-05-04T01:26:30.316Z,5.38
2023-05-04T01:29:35.096Z,10.93
2023-05-04T01:32:22.202Z,4.10
2023-05-04T01:35:08.876Z,7.57
2023-05-04T01:37:54.907Z,5.57
2023-05-04T01:40:41.324Z,4.72
2023-05-04T01:43:27.278Z,7.78
2023-05-04T01:46:13.243Z,8.07
2023-05-04T01:48:59.356Z,9.23
2023-05-04T01:51:46.929Z,14.02
2023-05-04T01:54:32.882Z,14.45
2023-05-04T01:57:18.910Z,13.68
2023-05-04T02:00:05.464Z,6.45
2023-05-04T02:03:01.060Z,6.03
2023-05-04T02:05:47.266Z,7.18
2023-05-04T02:08:35.131Z,6.85
2023-05-04T02:11:21.752Z,4.60
2023-05-04T02:14:07.923Z,5.30
2023-05-04T02:16:53.654Z,6.30
2023-05-04T02:19:39.387Z,4.55
2023-05-04T02:22:25.842Z,6.47
2023-05-04T02:25:12.073Z,3.88
2023-05-04T02:27:57.763Z,4.00
2023-05-04T02:30:43.692Z,4.35
2023-05-04T02:33:29.676Z,10.00
2023-05-04T02:36:15.611Z,5.47
2023-05-04T02:39:03.245Z,4.85
2023-05-04T02:41:48.963Z,4.50
2023-05-04T02:44:34.750Z,3.92
2023-05-04T02:47:20.534Z,6.10
2023-05-04T02:50:07.550Z,6.18
2023-05-04T02:52:53.590Z,6.03
2023-05-04T02:55:39.372Z,4.70
2023-05-04T02:58:25.077Z,4.95
2023-05-04T03:01:16.439Z,5.40
2023-05-04T03:04:03.456Z,3.65
2023-05-04T03:06:49.507Z,10.35
2023-05-04T03:09:35.848Z,3.83
2023-05-04T03:12:21.638Z,5.38
2023-05-04T03:15:08.254Z,7.43
2023-05-04T03:17:54.321Z,24.88
2023-05-04T03:20:41.099Z,10.95
2023-05-04T03:23:29.928Z,107.57
2023-05-04T03:26:15.810Z,13.77
2023-05-04T03:29:01.901Z,6.60
2023-05-04T03:31:48.325Z,5.28
2023-05-04T03:34:36.028Z,8.48
2023-05-04T03:37:24.496Z,5.82
2023-05-04T03:40:10.722Z,5.38
2023-05-04T03:42:57.788Z,8.02
2023-05-04T03:45:44.005Z,10.75
2023-05-04T03:48:29.749Z,5.07
2023-05-04T03:51:15.768Z,14.35
2023-05-04T03:54:02.144Z,6.75
2023-05-04T03:56:48.059Z,3.75
2023-05-04T03:59:36.760Z,7.68
2023-05-04T04:02:24.861Z,7.30
2023-05-04T04:05:10.825Z,4.60
2023-05-04T04:07:58.462Z,9.35
2023-05-04T04:10:45.930Z,4.97
2023-05-04T04:13:31.581Z,7.40
2023-05-04T04:16:17.322Z,10.68
2023-05-04T04:19:03.237Z,5.28
2023-05-04T04:21:49.046Z,3.67
2023-05-04T04:24:35.129Z,8.73
2023-05-04T04:27:20.898Z,4.70
2023-05-04T04:30:07.369Z,6.93
2023-05-04T04:32:54.865Z,9.68
2023-05-04T04:35:41.734Z,5.95
2023-05-04T04:38:27.894Z,8.98
2023-05-04T04:41:14.291Z,5.25
2023-05-04T04:44:00.114Z,10.60
2023-05-04T04:46:46.727Z,3.00
2023-05-04T04:49:32.721Z,4.75
2023-05-04T04:52:18.968Z,7.57
2023-05-04T04:55:05.473Z,9.90
2023-05-04T04:57:52.565Z,10.45
2023-05-04T05:00:40.850Z,8.60
2023-05-04T05:03:26.736Z,12.68
2023-05-04T05:06:13.797Z,9.93
2023-05-04T05:08:59.838Z,5.50
2023-05-04T05:11:45.897Z,6.72
2023-05-04T05:14:31.965Z,4.80
2023-05-04T05:17:19.215Z,12.77
2023-05-04T05:20:11.830Z,34.88
2023-05-04T05:23:00.417Z,5.72
2023-05-04T05:25:46.376Z,7.68
2023-05-04T05:28:32.496Z,14.70
2023-05-04T05:31:18.300Z,7.53
2023-05-04T05:34:04.157Z,5.05
2023-05-04T05:36:49.852Z,5.35
2023-05-04T05:39:37.063Z,3.65
2023-05-04T05:42:22.871Z,16.35
2023-05-04T05:45:10.343Z,6.47
2023-05-04T05:47:56.545Z,7.88
2023-05-04T05:50:42.257Z,6.40
2023-05-04T05:53:28.126Z,11.60
2023-05-04T05:56:14.902Z,4.68
2023-05-04T05:59:00.920Z,7.63
2023-05-04T06:01:48.028Z,9.10
2023-05-04T06:04:34.407Z,6.63
2023-05-04T06:07:21.743Z,10.45
2023-05-04T06:10:08.888Z,4.15
2023-05-04T06:12:54.740Z,4.13
2023-05-04T06:15:41.153Z,3.63
2023-05-04T06:18:27.241Z,2.17
2023-05-04T06:21:13.415Z,6.60
2023-05-04T06:23:59.574Z,3.00
2023-05-04T06:31:54.896Z,5.72
2023-05-04T06:34:41.116Z,11.57
2023-05-04T06:37:27.195Z,11.98
2023-05-04T06:40:14.082Z,7.70
2023-05-04T06:43:00.531Z,6.25
2023-05-04T06:45:46.391Z,21.13
2023-05-04T06:48:32.539Z,13.73
2023-05-04T06:51:18.218Z,37.55
2023-05-04T06:54:04.297Z,150.05
2023-05-04T06:56:51.537Z,51.30
2023-05-04T06:59:37.240Z,29.35
2023-05-04T07:02:23.184Z,21.33
2023-05-04T07:05:09.967Z,22.23
2023-05-04T07:07:56.424Z,10.13
2023-05-04T07:10:42.254Z,6.47
2023-05-04T07:13:28.498Z,9.75
2023-05-04T07:16:14.290Z,3.05
2023-05-04T07:19:00.240Z,4.30
2023-05-04T07:21:45.898Z,14.82
2023-05-04T07:24:31.944Z,3.63
2023-05-04T07:27:18.046Z,6.50
2023-05-04T07:30:06.761Z,3.72
2023-05-04T07:32:52.891Z,11.45
2023-05-04T07:35:38.699Z,8.35
2023-05-04T07:38:26.898Z,5.15
2023-05-04T07:41:13.027Z,4.53
2023-05-04T07:43:59.471Z,5.47
2023-05-04T07:46:45.305Z,9.35
2023-05-04T07:49:31.567Z,11.25
2023-05-04T07:52:17.297Z,16.83
2023-05-04T07:55:03.031Z,5.95
2023-05-04T07:57:49.122Z,4.53
2023-05-04T08:00:37.425Z,4.13
2023-05-04T08:03:23.524Z,2.85
2023-05-04T08:06:09.866Z,2.33
2023-05-04T08:08:55.955Z,6.55
2023-05-04T08:11:42.138Z,3.65
2023-05-04T08:14:28.165Z,10.90
2023-05-04T08:17:14.394Z,7.13
2023-05-04T08:20:00.382Z,4.38
2023-05-04T08:22:47.490Z,3.35
2023-05-04T08:25:33.288Z,13.02
2023-05-04T08:28:18.957Z,3.20
2023-05-04T08:31:04.902Z,3.85
2023-05-04T08:33:51.643Z,4.72
2023-05-04T08:36:37.512Z,6.50
2023-05-04T08:39:23.275Z,5.97
2023-05-04T08:42:09.879Z,8.60
2023-05-04T08:44:56.274Z,5.35
2023-05-04T08:47:43.571Z,7.05
2023-05-04T08:50:29.843Z,5.85
2023-05-04T08:53:18.624Z,2.67
2023-05-04T08:56:09.608Z,3.17
2023-05-04T08:59:01.798Z,3.97
2023-05-04T09:01:51.305Z,3.00
2023-05-04T09:04:37.742Z,4.40
2023-05-04T09:07:23.922Z,2.90
2023-05-04T09:10:10.200Z,3.70
2023-05-04T09:12:56.274Z,4.97
2023-05-04T09:15:42.450Z,10.50
2023-05-04T09:18:45.665Z,23.63
2023-05-04T09:21:32.220Z,3.13
2023-05-04T09:24:30.870Z,4.70
2023-05-04T09:27:18.281Z,4.55
2023-05-04T09:30:05.558Z,6.63
2023-05-04T09:32:51.685Z,8.63
2023-05-04T09:35:41.132Z,11.23
2023-05-04T09:38:27.564Z,21.65
2023-05-04T09:41:13.766Z,14.38
2023-05-04T09:43:59.653Z,20.27
2023-05-04T09:46:55.852Z,18.52
2023-05-04T09:49:41.571Z,14.40
2023-05-04T09:52:29.276Z,13.45
2023-05-04T09:55:17.061Z,10.35
2023-05-04T09:58:03.045Z,12.80
2023-05-04T10:00:49.141Z,8.98
2023-05-04T10:03:35.278Z,4.82
2023-05-04T10:06:22.063Z,8.93
2023-05-04T10:09:08.082Z,9.88
2023-05-04T10:11:54.069Z,8.80
2023-05-04T10:14:39.993Z,6.28
2023-05-04T10:17:48.081Z,5.68
2023-05-04T10:21:02.108Z,12.10
2023-05-04T10:24:00.329Z,12.30
2023-05-04T10:27:13.872Z,6.15
2023-05-04T10:30:01.426Z,3.97
2023-05-04T10:32:55.751Z,7.40
2023-05-04T10:35:54.946Z,10.68
2023-05-04T10:38:41.509Z,9.10
2023-05-04T10:41:27.385Z,11.68
2023-05-04T10:44:13.403Z,12.52
2023-05-04T10:47:08.912Z,7.00
2023-05-04T10:50:02.572Z,5.63
2023-05-04T10:52:49.786Z,13.40
2023-05-04T10:55:41.834Z,12.43
2023-05-04T10:58:30.623Z,3.83
2023-05-04T11:01:17.626Z,4.45
2023-05-04T11:04:03.825Z,4.30
2023-05-04T11:07:00.424Z,5.38
2023-05-04T11:09:46.209Z,3.38
2023-05-04T11:12:32.999Z,2.33
2023-05-04T11:15:19.477Z,3.53
2023-05-04T11:18:05.713Z,5.40
2023-05-04T11:20:51.735Z,6.57
2023-05-04T11:23:40.200Z,7.20
2023-05-04T11:26:26.645Z,7.80
2023-05-04T11:29:13.906Z,8.27
2023-05-04T11:31:59.733Z,26.65
2023-05-04T11:34:48.856Z,14.48
2023-05-04T11:37:43.158Z,6.10
2023-05-04T11:40:29.129Z,6.53
2023-05-04T11:43:16.145Z,3.03
2023-05-04T11:46:02.879Z,4.10
2023-05-04T11:48:50.095Z,4.07
2023-05-04T11:51:36.265Z,15.93
2023-05-04T11:54:22.382Z,8.30
2023-05-04T11:57:08.284Z,46.80
2023-05-04T11:59:54.777Z,16.95
2023-05-04T12:02:41.206Z,12.25
2023-05-04T12:05:28.678Z,15.55
2023-05-04T12:08:27.663Z,5.47
2023-05-04T12:11:27.627Z,5.28
2023-05-04T12:14:14.118Z,11.68
2023-05-04T12:17:04.670Z,21.73
2023-05-04T12:19:55.279Z,7.75
2023-05-04T12:22:41.453Z,8.45
2023-05-04T12:25:27.221Z,16.63
2023-05-04T12:28:13.509Z,12.82
2023-05-04T12:31:00.474Z,29.60
2023-05-04T12:33:46.771Z,37.83
2023-05-04T12:36:32.544Z,83.35
2023-05-04T12:39:18.499Z,51.97
2023-05-04T12:42:04.742Z,13.98
2023-05-04T12:44:51.331Z,17.55
2023-05-04T12:47:37.546Z,43.35
2023-05-04T12:50:23.503Z,21.50
2023-05-04T12:53:09.358Z,143.63
2023-05-04T12:55:55.859Z,50.47
2023-05-04T12:58:41.896Z,19.55
2023-05-04T13:01:31.922Z,17.17
2023-05-04T13:04:17.903Z,10.05
2023-05-04T13:07:04.123Z,6.40
2023-05-04T13:09:49.994Z,7.53
2023-05-04T13:12:36.632Z,10.70
2023-05-04T13:15:23.749Z,19.63
2023-05-04T13:18:09.909Z,17.23
2023-05-04T13:20:56.729Z,12.18
2023-05-04T13:23:42.750Z,17.08
2023-05-04T13:26:28.522Z,11.45
2023-05-04T13:29:14.314Z,14.80
2023-05-04T13:32:00.371Z,12.13
2023-05-04T13:34:47.755Z,14.70
2023-05-04T13:37:35.587Z,25.85
2023-05-04T13:40:22.152Z,23.33
2023-05-04T13:43:08.054Z,22.45
2023-05-04T13:45:54.004Z,9.63
2023-05-04T13:48:40.032Z,15.32
2023-05-04T13:51:25.960Z,3.10
2023-05-04T13:54:11.877Z,3.55
2023-05-04T13:56:57.618Z,2.50
2023-05-04T13:59:51.593Z,4.55
2023-05-04T14:02:46.474Z,5.18
2023-05-04T14:05:32.298Z,2.65
2023-05-04T14:08:21.313Z,2.45
2023-05-04T14:11:08.492Z,3.88
2023-05-04T14:13:56.111Z,4.35
2023-05-04T14:16:42.503Z,3.97
2023-05-04T14:19:28.791Z,2.30
2023-05-04T14:22:14.758Z,3.75
2023-05-04T14:25:00.872Z,3.47
2023-05-04T14:27:46.785Z,3.53
2023-05-04T14:30:33.751Z,2.67
2023-05-04T14:33:19.599Z,3.05
2023-05-04T14:36:05.915Z,2.25
2023-05-04T14:38:51.829Z,4.13
2023-05-04T14:41:38.573Z,3.75
2023-05-04T14:44:26.162Z,3.60
2023-05-04T14:47:11.965Z,6.07
2023-05-04T14:49:58.210Z,6.57
2023-05-04T14:52:44.609Z,4.07
2023-05-04T14:55:33.507Z,5.93
2023-05-04T14:58:19.606Z,7.85
2023-05-04T15:01:06.265Z,2.55
2023-05-04T15:03:52.581Z,4.10
2023-05-04T15:06:40.326Z,2.38
2023-05-04T15:09:26.421Z,6.93
2023-05-04T15:12:12.626Z,3.63
2023-05-04T15:14:58.720Z,6.35
2023-05-04T15:17:44.446Z,5.10
2023-05-04T15:20:30.537Z,4.15
2023-05-04T15:23:16.460Z,5.22
2023-05-04T15:26:02.591Z,2.83
2023-05-04T15:28:48.799Z,3.40
2023-05-04T15:31:34.738Z,4.05
2023-05-04T15:34:20.551Z,3.35
2023-05-04T15:37:06.677Z,8.70
2023-05-04T15:39:53.576Z,6.53
2023-05-04T15:42:39.490Z,5.03
2023-05-04T15:45:25.422Z,7.38
2023-05-04T15:48:11.407Z,8.90
2023-05-04T15:50:57.229Z,16.73
2023-05-04T15:53:42.974Z,6.97
2023-05-04T15:56:28.792Z,5.18
2023-05-04T15:59:17.377Z,9.68
2023-05-04T16:02:06.001Z,4.85
2023-05-04T16:04:51.719Z,11.85
2023-05-04T16:07:37.673Z,12.45
2023-05-04T16:10:23.996Z,8.98
2023-05-04T16:13:12.198Z,10.75
2023-05-04T16:15:58.402Z,14.40
2023-05-04T16:18:44.408Z,10.40
2023-05-04T16:21:30.484Z,7.35
2023-05-04T16:24:16.582Z,9.63
2023-05-04T16:27:03.488Z,9.73
2023-05-04T16:29:49.189Z,13.13
2023-05-04T16:32:34.953Z,21.05
2023-05-04T16:35:20.894Z,21.40
2023-05-04T16:38:07.127Z,13.07
2023-05-04T16:40:53.232Z,17.38
2023-05-04T16:43:39.010Z,14.38
2023-05-04T16:46:25.147Z,13.20
2023-05-04T16:49:12.549Z,9.73
2023-05-04T16:52:00.211Z,11.00
2023-05-04T16:54:46.359Z,12.10
2023-05-04T16:57:32.337Z,17.33
2023-05-04T17:00:18.561Z,9.75
2023-05-04T17:03:04.829Z,18.52
2023-05-04T17:05:51.615Z,12.88
2023-05-04T17:08:37.695Z,21.98
2023-05-04T17:11:24.129Z,24.20
2023-05-04T17:14:10.045Z,14.88
2023-05-04T17:16:56.116Z,15.15
2023-05-04T17:19:42.456Z,18.52
2023-05-04T17:22:28.499Z,20.92
2023-05-04T17:25:14.583Z,21.73
2023-05-04T17:28:00.393Z,21.40
2023-05-04T17:30:46.721Z,12.43
2023-05-04T17:33:32.642Z,12.90
2023-05-04T17:36:18.463Z,14.75
2023-05-04T17:39:04.705Z,19.55
2023-05-04T17:41:51.144Z,23.52
2023-05-04T17:44:36.998Z,18.02
2023-05-04T17:47:23.220Z,13.55
2023-05-04T17:50:09.824Z,14.25
2023-05-04T17:52:56.044Z,23.92
2023-05-04T17:55:42.461Z,22.73
2023-05-04T17:58:28.449Z,22.25
2023-05-04T18:01:14.598Z,23.80
2023-05-04T18:04:04.161Z,24.38
2023-05-04T18:06:50.909Z,16.38
2023-05-04T18:09:36.925Z,21.02
2023-05-04T18:12:23.219Z,20.85
2023-05-04T18:15:09.768Z,16.08
2023-05-04T18:17:55.778Z,14.38
2023-05-04T18:20:42.110Z,11.73
2023-05-04T18:23:28.010Z,15.57
2023-05-04T18:26:22.870Z,12.50
2023-05-04T18:29:18.358Z,21.45
2023-05-04T18:32:08.098Z,16.08
2023-05-04T18:34:54.954Z,14.60
2023-05-04T18:37:41.083Z,15.10
2023-05-04T18:40:27.229Z,13.98
2023-05-04T18:43:13.180Z,12.75
2023-05-04T18:46:06.715Z,15.27
2023-05-04T18:48:53.155Z,10.65
2023-05-04T18:51:41.926Z,12.07
2023-05-04T18:54:34.178Z,16.38
2023-05-04T18:57:20.710Z,16.33
2023-05-04T19:00:07.702Z,13.63
2023-05-04T19:02:54.157Z,13.30
2023-05-04T19:05:40.774Z,8.07
2023-05-04T19:08:27.065Z,15.20
2023-05-04T19:11:13.110Z,14.25
2023-05-04T19:13:59.492Z,12.52
2023-05-04T19:16:45.812Z,13.57
2023-05-04T19:19:32.107Z,10.20
2023-05-04T19:22:18.119Z,12.55
2023-05-04T19:25:04.696Z,12.18
2023-05-04T19:27:51.068Z,13.02
2023-05-04T19:30:38.278Z,16.70
2023-05-04T19:33:30.352Z,9.60
2023-05-04T19:36:23.110Z,9.52
2023-05-04T19:39:10.429Z,10.45
2023-05-04T19:41:56.477Z,14.57
2023-05-04T19:44:42.575Z,18.48
2023-05-04T19:47:28.979Z,17.35
2023-05-04T19:50:16.856Z,11.70
2023-05-04T19:53:03.271Z,33.78
2023-05-04T19:55:49.595Z,114.93
2023-05-04T19:58:36.933Z,113.65
2023-05-04T20:01:24.084Z,111.55
2023-05-04T20:04:12.871Z,31.15
2023-05-04T20:06:59.005Z,11.07
2023-05-04T20:09:45.069Z,142.00
2023-05-04T20:12:31.381Z,136.90
2023-05-04T20:15:17.923Z,186.57
2023-05-04T20:18:04.187Z,120.72
2023-05-04T20:20:52.412Z,19.25
2023-05-04T20:23:38.872Z,16.88
2023-05-04T20:26:25.113Z,16.75
2023-05-04T20:29:11.416Z,16.27
2023-05-04T20:31:57.585Z,106.60
2023-05-04T20:34:45.061Z,117.68
2023-05-04T20:37:30.719Z,31.33
2023-05-04T20:40:17.004Z,28.13
2023-05-04T20:43:02.598Z,18.80
2023-05-04T20:45:48.614Z,14.63
2023-05-04T20:48:35.596Z,17.05
2023-05-04T20:51:21.658Z,17.70
2023-05-04T20:54:07.503Z,140.57
2023-05-04T20:56:53.304Z,100.07
2023-05-04T20:59:39.293Z,114.43
2023-05-04T21:02:25.305Z,203.73
2023-05-04T21:05:11.529Z,45.95
2023-05-04T21:07:57.944Z,12.15
2023-05-04T21:10:44.018Z,13.50
2023-05-04T21:13:29.926Z,8.75
2023-05-04T21:16:16.190Z,7.57
2023-05-04T21:19:02.465Z,9.68
2023-05-04T21:21:49.405Z,11.15
2023-05-04T21:24:36.440Z,13.70
2023-05-04T21:27:22.334Z,8.82
2023-05-04T21:30:10.040Z,7.15
2023-05-04T21:32:56.428Z,9.60
2023-05-04T21:35:42.477Z,6.65
2023-05-04T21:38:28.782Z,7.88
2023-05-04T21:41:17.429Z,12.23
2023-05-04T21:44:03.178Z,9.63
2023-05-04T21:46:49.359Z,7.80
2023-05-04T21:49:35.444Z,7.20
2023-05-04T21:52:21.355Z,8.48
2023-05-04T21:55:07.719Z,17.55
2023-05-04T21:57:53.603Z,17.67
2023-05-04T22:00:39.761Z,16.40
2023-05-04T22:03:25.949Z,13.40
2023-05-04T22:06:12.158Z,14.95
2023-05-04T22:08:58.456Z,21.35
2023-05-04T22:11:44.322Z,17.77
2023-05-04T22:14:30.103Z,14.95
2023-05-04T22:17:16.215Z,17.33
2023-05-04T22:20:02.341Z,17.73
2023-05-04T22:22:48.100Z,15.00
2023-05-04T22:25:33.951Z,18.02
2023-05-04T22:28:19.820Z,16.85
2023-05-04T22:31:05.626Z,13.63
2023-05-04T22:33:51.503Z,18.73
2023-05-04T22:36:37.544Z,16.30
2023-05-04T22:39:23.383Z,13.05
2023-05-04T22:42:09.434Z,21.48
2023-05-04T22:44:55.711Z,16.08
2023-05-04T22:47:42.340Z,26.23
2023-05-04T22:50:27.966Z,23.52
2023-05-04T22:53:14.771Z,12.43
2023-05-04T22:56:01.002Z,19.20
2023-05-04T22:58:47.124Z,20.98
2023-05-04T23:01:35.226Z,24.20
2023-05-04T23:04:21.288Z,16.25
2023-05-04T23:07:07.264Z,22.80
2023-05-04T23:09:53.321Z,19.00
2023-05-04T23:12:39.172Z,20.42
2023-05-04T23:15:25.177Z,24.92
2023-05-04T23:18:10.935Z,20.17
2023-05-04T23:20:57.036Z,18.13
2023-05-04T23:23:43.081Z,22.45
2023-05-04T23:26:28.996Z,20.70
2023-05-04T23:29:14.910Z,25.80
2023-05-04T23:32:01.318Z,23.63
2023-05-04T23:34:47.703Z,26.15
2023-05-04T23:37:33.535Z,30.73
2023-05-04T23:40:20.017Z,14.93
2023-05-04T23:43:05.889Z,24.08
2023-05-04T23:46:02.146Z,19.50
2023-05-04T23:48:48.284Z,18.13
2023-05-04T23:51:34.089Z,17.70
2023-05-04T23:54:20.014Z,19.58
2023-05-04T23:57:08.610Z,18.08
2023-05-04T23:59:54.562Z,23.98
